createdAt,value
2019-01-23T00:00:03.233Z,37.75
2019-01-23T00:01:03.619Z,37.75
2019-01-23T00:02:02.586Z,41.03
2019-01-23T00:03:03.328Z,42.3
2019-01-23T00:04:03.397Z,39.87
2019-01-23T00:05:03.588Z,36.21
2019-01-23T00:06:03.309Z,37.77
2019-01-23T00:07:03.002Z,37.77
2019-01-23T00:08:03.086Z,36.89
2019-01-23T00:09:03.050Z,36.11
2019-01-23T00:10:03.201Z,36.02
2019-01-23T00:11:03.002Z,35.67
2019-01-23T00:12:03.455Z,37.46
2019-01-23T00:13:03.658Z,41.2
2019-01-23T00:14:03.647Z,35.89
2019-01-23T00:15:02.859Z,35.89
2019-01-23T00:16:03.009Z,37.26
2019-01-23T00:17:03.152Z,37.26
2019-01-23T00:18:03.136Z,36
2019-01-23T00:19:02.911Z,36
2019-01-23T00:20:03.290Z,38.1
2019-01-23T00:21:03.355Z,38.1
2019-01-23T00:22:03.175Z,38.01
2019-01-23T00:23:02.992Z,38.84
2019-01-23T00:24:03.699Z,40.14
2019-01-23T00:25:03.323Z,40.14
2019-01-23T00:26:03.551Z,38.25
2019-01-23T00:27:02.941Z,36.25
2019-01-23T00:28:03.008Z,41.11
2019-01-23T00:29:03.174Z,41.11
2019-01-23T00:30:03.175Z,36.51
2019-01-23T00:31:03.304Z,36.51
2019-01-23T00:32:03.123Z,37.15
2019-01-23T00:33:02.530Z,38.42
2019-01-23T00:34:03.126Z,36.93
2019-01-23T00:35:03.118Z,36.93
2019-01-23T00:36:03.040Z,37.08
2019-01-23T00:37:03.205Z,40.29
2019-01-23T00:38:03.491Z,38.92
2019-01-23T00:39:02.272Z,39.76
2019-01-23T00:40:03.319Z,38.6
2019-01-23T00:41:03.167Z,38.6
2019-01-23T00:42:02.690Z,38.6
2019-01-23T00:43:02.845Z,38.23
2019-01-23T00:44:02.889Z,38.75
2019-01-23T00:45:03.314Z,38.75
2019-01-23T00:46:02.882Z,39.49
2019-01-23T00:47:03.463Z,40.85
2019-01-23T00:48:03.779Z,43.52
2019-01-23T00:49:03.114Z,41.11
2019-01-23T00:50:03.163Z,39.87
2019-01-23T00:51:03.129Z,40.62
2019-01-23T00:52:03.238Z,38.42
2019-01-23T00:53:02.710Z,38.81
2019-01-23T00:54:02.868Z,39.93
2019-01-23T00:55:02.927Z,39.93
2019-01-23T00:56:03.685Z,40.42
2019-01-23T00:57:02.125Z,40.45
2019-01-23T00:58:03.562Z,38.69
2019-01-23T00:59:03.330Z,41.38
2019-01-23T01:00:03.468Z,39.41
2019-01-23T01:01:02.722Z,42.79
2019-01-23T01:02:03.365Z,40.38
2019-01-23T01:03:03.691Z,43.24
2019-01-23T01:04:02.986Z,40.28
2019-01-23T01:05:02.759Z,40.5
2019-01-23T01:06:03.217Z,41.81
2019-01-23T01:07:03.258Z,41.81
2019-01-23T01:08:03.520Z,41.01
2019-01-23T01:09:02.870Z,41.01
2019-01-23T01:10:03.025Z,40.64
2019-01-23T01:11:03.459Z,41.85
2019-01-23T01:12:03.172Z,38.11
2019-01-23T01:13:02.798Z,38.11
2019-01-23T01:14:03.315Z,38.64
2019-01-23T01:15:03.079Z,39.88
2019-01-23T01:16:03.108Z,35.95
2019-01-23T01:17:02.522Z,38.72
2019-01-23T01:18:03.398Z,39.79
2019-01-23T01:19:03.187Z,40.81
2019-01-23T01:20:02.204Z,38.86
2019-01-23T01:21:03.090Z,38.86
2019-01-23T01:22:03.448Z,38.1
2019-01-23T01:23:03.664Z,40.01
2019-01-23T01:24:03.443Z,37.8
2019-01-23T01:25:03.030Z,38.39
2019-01-23T01:26:02.880Z,38.39
2019-01-23T01:27:02.861Z,38.19
2019-01-23T01:28:03.760Z,36.65
2019-01-23T01:29:02.787Z,36.65
2019-01-23T01:30:03.804Z,37.48
2019-01-23T01:31:03.444Z,37.48
2019-01-23T01:32:03.019Z,35.5
2019-01-23T01:33:03.192Z,37.35
2019-01-23T01:34:03.491Z,38.89
2019-01-23T01:35:03.264Z,38.89
2019-01-23T01:36:03.445Z,39.64
2019-01-23T01:37:03.485Z,39.64
2019-01-23T01:38:03.326Z,39.8
2019-01-23T01:39:03.055Z,39.92
2019-01-23T01:40:03.248Z,39.53
2019-01-23T01:41:02.994Z,39.83
2019-01-23T01:42:02.387Z,41.63
2019-01-23T01:43:03.037Z,39.12
2019-01-23T01:44:03.366Z,38.26
2019-01-23T01:45:03.685Z,38.26
2019-01-23T01:46:03.030Z,41.24
2019-01-23T01:47:03.534Z,40.13
2019-01-23T01:48:03.084Z,38.69
2019-01-23T01:49:02.933Z,38.97
2019-01-23T01:50:03.698Z,41.71
2019-01-23T01:51:03.292Z,39.55
2019-01-23T01:52:03.300Z,40.15
2019-01-23T01:53:02.744Z,42.71
2019-01-23T01:54:02.859Z,42.36
2019-01-23T01:55:03.276Z,42.36
2019-01-23T01:56:03.695Z,41.41
2019-01-23T01:57:03.425Z,41.41
2019-01-23T01:58:03.486Z,36.38
2019-01-23T01:59:03.162Z,36.38
2019-01-23T02:00:03.519Z,43.18
2019-01-23T02:01:03.318Z,43.18
2019-01-23T02:02:02.778Z,39.52
2019-01-23T02:03:03.358Z,40.37
2019-01-23T02:04:03.584Z,40.86
2019-01-23T02:05:03.580Z,40.59
2019-01-23T02:06:03.173Z,40.59
2019-01-23T02:07:02.222Z,42.7
2019-01-23T02:08:03.028Z,44.22
2019-01-23T02:09:03.031Z,44.22
2019-01-23T02:10:03.668Z,43.45
2019-01-23T02:11:03.734Z,38.01
2019-01-23T02:12:03.333Z,42.19
2019-01-23T02:13:03.500Z,41.33
2019-01-23T02:14:03.025Z,42.38
2019-01-23T02:15:02.736Z,41.1
2019-01-23T02:16:02.890Z,40.11
2019-01-23T02:17:03.700Z,40.11
2019-01-23T02:18:02.709Z,39.28
2019-01-23T02:19:03.030Z,39.28
2019-01-23T02:20:03.029Z,37.11
2019-01-23T02:21:03.217Z,37.11
2019-01-23T02:22:03.436Z,42.09
2019-01-23T02:23:02.812Z,42.09
2019-01-23T02:24:03.629Z,40.22
2019-01-23T02:25:03.868Z,40.22
2019-01-23T02:26:02.595Z,37.75
2019-01-23T02:27:03.412Z,39.84
2019-01-23T02:28:03.328Z,42.54
2019-01-23T02:29:09.805Z,42.54
2019-01-23T02:30:02.659Z,39.16
2019-01-23T02:31:03.436Z,39.55
2019-01-23T02:32:03.207Z,39.18
2019-01-23T02:33:03.136Z,42.64
2019-01-23T02:34:02.812Z,41.39
2019-01-23T02:35:03.575Z,38.67
2019-01-23T02:36:03.414Z,38.67
2019-01-23T02:37:02.843Z,39.47
2019-01-23T02:38:02.953Z,39.47
2019-01-23T02:39:03.477Z,36.26
2019-01-23T02:40:03.247Z,40.41
2019-01-23T02:41:02.807Z,37.3
2019-01-23T02:42:01.890Z,37.81
2019-01-23T02:43:02.894Z,36.57
2019-01-23T02:44:03.333Z,32.83
2019-01-23T02:45:02.820Z,34.19
2019-01-23T02:46:03.491Z,32.15
2019-01-23T02:47:03.507Z,34.77
2019-01-23T02:48:03.494Z,33.32
2019-01-23T02:49:02.795Z,35.76
2019-01-23T02:50:03.749Z,32.56
2019-01-23T02:51:03.081Z,36.02
2019-01-23T02:52:03.634Z,34.5
2019-01-23T02:53:02.869Z,33.14
2019-01-23T02:54:03.596Z,33.14
2019-01-23T02:55:03.557Z,34.24
2019-01-23T02:56:03.396Z,35.26
2019-01-23T02:57:02.929Z,31.88
2019-01-23T02:58:02.871Z,31.88
2019-01-23T02:59:02.956Z,33.91
2019-01-23T03:00:03.505Z,33.91
2019-01-23T03:01:02.729Z,35.55
2019-01-23T03:02:03.350Z,34.51
2019-01-23T03:03:02.878Z,36.28
2019-01-23T03:04:03.348Z,36.28
2019-01-23T03:05:03.171Z,36.86
2019-01-23T03:06:02.760Z,36.86
2019-01-23T03:07:03.202Z,37.59
2019-01-23T03:08:02.764Z,38.46
2019-01-23T03:09:03.819Z,38.46
2019-01-23T03:10:02.963Z,38.86
2019-01-23T03:11:02.948Z,41.71
2019-01-23T03:12:03.295Z,41.71
2019-01-23T03:13:03.659Z,39.85
2019-01-23T03:14:03.453Z,36.66
2019-01-23T03:15:02.633Z,32.75
2019-01-23T03:16:03.708Z,33.06
2019-01-23T03:17:02.674Z,34.96
2019-01-23T03:18:03.439Z,34.96
2019-01-23T03:19:02.859Z,30.95
2019-01-23T03:20:03.837Z,33.94
2019-01-23T03:21:03.519Z,35.74
2019-01-23T03:22:03.315Z,35.74
2019-01-23T03:23:03.609Z,34.93
2019-01-23T03:24:03.342Z,34.93
2019-01-23T03:25:03.148Z,35.95
2019-01-23T03:26:03.235Z,35.51
2019-01-23T03:27:02.946Z,33.28
2019-01-23T03:28:02.818Z,33.28
2019-01-23T03:29:02.913Z,33.05
2019-01-23T03:30:03.759Z,33.05
2019-01-23T03:31:03.318Z,32.99
2019-01-23T03:32:03.221Z,32.75
2019-01-23T03:33:03.589Z,33.79
2019-01-23T03:34:03.297Z,31.65
2019-01-23T03:35:03.540Z,29.4
2019-01-23T03:36:01.984Z,29.94
2019-01-23T03:37:03.066Z,30.53
2019-01-23T03:38:01.842Z,32.02
2019-01-23T03:39:02.647Z,30.84
2019-01-23T03:40:03.174Z,32.48
2019-01-23T03:41:03.258Z,31.69
2019-01-23T03:42:03.551Z,31.69
2019-01-23T03:43:02.712Z,30.38
2019-01-23T03:44:03.013Z,31.04
2019-01-23T03:45:03.019Z,34.7
2019-01-23T03:46:03.097Z,34.7
2019-01-23T03:47:03.625Z,35.49
2019-01-23T03:48:02.800Z,35.8
2019-01-23T03:49:02.705Z,35.8
2019-01-23T03:50:03.713Z,35.08
2019-01-23T03:51:03.468Z,39.99
2019-01-23T03:52:03.495Z,39.99
2019-01-23T03:53:03.128Z,42.54
2019-01-23T03:54:02.896Z,42.54
2019-01-23T03:55:03.520Z,40.61
2019-01-23T03:56:03.407Z,40.61
2019-01-23T03:57:02.937Z,40.69
2019-01-23T03:58:03.197Z,40.9
2019-01-23T03:59:02.628Z,43.22
2019-01-23T04:00:03.031Z,40.24
2019-01-23T04:01:03.647Z,39.44
2019-01-23T04:02:02.350Z,40.44
2019-01-23T04:03:03.318Z,40.02
2019-01-23T04:04:02.772Z,42.21
2019-01-23T04:05:03.005Z,39.62
2019-01-23T04:06:03.571Z,39.07
2019-01-23T04:07:03.478Z,38.9
2019-01-23T04:08:03.061Z,39.57
2019-01-23T04:09:02.959Z,38.52
2019-01-23T04:10:03.649Z,38.52
2019-01-23T04:11:03.356Z,37.92
2019-01-23T04:12:02.847Z,37.39
2019-01-23T04:13:03.466Z,37.14
2019-01-23T04:14:03.110Z,37.14
2019-01-23T04:15:03.327Z,38.87
2019-01-23T04:16:03.110Z,38.87
2019-01-23T04:17:02.889Z,37.85
2019-01-23T04:18:03.550Z,37.45
2019-01-23T04:19:03.250Z,36.04
2019-01-23T04:20:03.105Z,36.04
2019-01-23T04:21:02.611Z,33.23
2019-01-23T04:22:03.714Z,34.26
2019-01-23T04:23:03.306Z,31.42
2019-01-23T04:24:02.909Z,32.34
2019-01-23T04:25:03.414Z,35.71
2019-01-23T04:26:02.986Z,32.47
2019-01-23T04:27:03.699Z,33.46
2019-01-23T04:28:01.805Z,38.55
2019-01-23T04:29:03.246Z,35.74
2019-01-23T04:30:01.809Z,33.25
2019-01-23T04:31:03.043Z,35.56
2019-01-23T04:32:02.934Z,31.31
2019-01-23T04:33:03.209Z,32.12
2019-01-23T04:34:02.757Z,32.24
2019-01-23T04:35:02.767Z,32.75
2019-01-23T04:36:02.926Z,34.75
2019-01-23T04:37:03.641Z,32.9
2019-01-23T04:38:02.960Z,33.98
2019-01-23T04:39:03.275Z,32.88
2019-01-23T04:40:03.761Z,36.15
2019-01-23T04:41:03.043Z,36.15
2019-01-23T04:42:03.215Z,34.55
2019-01-23T04:43:02.918Z,34.69
2019-01-23T04:44:03.580Z,34.69
2019-01-23T04:45:03.227Z,33.71
2019-01-23T04:46:02.733Z,34.28
2019-01-23T04:47:02.750Z,34.28
2019-01-23T04:48:03.021Z,37.09
2019-01-23T04:49:03.529Z,36.71
2019-01-23T04:50:03.459Z,37.26
2019-01-23T04:51:03.528Z,37.12
2019-01-23T04:52:03.112Z,37.12
2019-01-23T04:53:03.008Z,38.92
2019-01-23T04:54:02.548Z,38.48
2019-01-23T04:55:02.320Z,39.54
2019-01-23T04:56:02.312Z,40.78
2019-01-23T04:57:01.904Z,41.65
2019-01-23T04:58:03.530Z,39.72
2019-01-23T04:59:02.906Z,41.47
2019-01-23T05:00:03.533Z,41.47
2019-01-23T05:01:03.256Z,38.29
2019-01-23T05:02:02.928Z,40.15
2019-01-23T05:03:02.929Z,39.79
2019-01-23T05:04:03.722Z,42.04
2019-01-23T05:05:03.683Z,42.04
2019-01-23T05:06:03.342Z,40.43
2019-01-23T05:07:02.940Z,41.52
2019-01-23T05:08:03.467Z,42.6
2019-01-23T05:09:03.218Z,42.6
2019-01-23T05:10:03.068Z,40.6
2019-01-23T05:11:02.881Z,43.66
2019-01-23T05:12:02.672Z,41.8
2019-01-23T05:13:02.899Z,38.52
2019-01-23T05:14:02.734Z,38.52
2019-01-23T05:15:02.730Z,40.17
2019-01-23T05:16:02.794Z,41.59
2019-01-23T05:17:03.327Z,42.64
2019-01-23T05:18:02.732Z,42.03
2019-01-23T05:19:03.027Z,40.53
2019-01-23T05:20:03.629Z,43.62
2019-01-23T05:21:02.921Z,41.49
2019-01-23T05:22:03.458Z,40.99
2019-01-23T05:23:03.200Z,40.69
2019-01-23T05:24:02.738Z,38.85
2019-01-23T05:25:03.619Z,41.88
2019-01-23T05:26:03.017Z,43.43
2019-01-23T05:27:03.555Z,45.9
2019-01-23T05:28:02.913Z,44.01
2019-01-23T05:29:02.921Z,40.85
2019-01-23T05:30:03.164Z,41.61
2019-01-23T05:31:02.907Z,41.78
2019-01-23T05:32:03.025Z,41.28
2019-01-23T05:33:03.611Z,41.28
2019-01-23T05:34:02.902Z,42.21
2019-01-23T05:35:02.974Z,42.21
2019-01-23T05:36:03.356Z,42.21
2019-01-23T05:37:03.109Z,44.96
2019-01-23T05:38:03.304Z,41.31
2019-01-23T05:39:02.941Z,46.18
2019-01-23T05:40:03.714Z,46.18
2019-01-23T05:41:03.551Z,41.31
2019-01-23T05:42:03.051Z,43.68
2019-01-23T05:43:03.706Z,43.68
2019-01-23T05:44:03.197Z,45.14
2019-01-23T05:45:03.146Z,42.61
2019-01-23T05:46:03.200Z,44.98
2019-01-23T05:47:03.182Z,42
2019-01-23T05:48:03.388Z,45.4
2019-01-23T05:49:03.618Z,43.47
2019-01-23T05:50:03.062Z,40.85
2019-01-23T05:51:03.219Z,43.84
2019-01-23T05:52:02.930Z,43.97
2019-01-23T05:53:03.158Z,42.34
2019-01-23T05:54:02.953Z,45.24
2019-01-23T05:55:03.107Z,41.46
2019-01-23T05:56:03.042Z,42.29
2019-01-23T05:57:03.404Z,42.29
2019-01-23T05:58:03.685Z,42.96
2019-01-23T05:59:03.463Z,42.96
2019-01-23T06:00:03.510Z,39.46
2019-01-23T06:01:03.630Z,39.46
2019-01-23T06:02:02.715Z,42.96
2019-01-23T06:03:03.262Z,42.96
2019-01-23T06:04:03.050Z,43.17
2019-01-23T06:05:02.805Z,40.64
2019-01-23T06:06:03.705Z,41.93
2019-01-23T06:07:02.884Z,41.93
2019-01-23T06:08:03.571Z,44.19
2019-01-23T06:09:02.251Z,42.18
2019-01-23T06:10:03.724Z,43.43
2019-01-23T06:11:03.375Z,43.43
2019-01-23T06:12:03.387Z,41.38
2019-01-23T06:13:03.654Z,41.71
2019-01-23T06:14:03.508Z,40.48
2019-01-23T06:15:03.007Z,39.35
2019-01-23T06:16:03.458Z,41.19
2019-01-23T06:17:02.737Z,40.98
2019-01-23T06:18:03.699Z,39.91
2019-01-23T06:19:03.239Z,39.91
2019-01-23T06:20:03.454Z,39.46
2019-01-23T06:21:02.784Z,39.46
2019-01-23T06:22:03.509Z,38.34
2019-01-23T06:23:03.318Z,38.34
2019-01-23T06:24:03.498Z,40.48
2019-01-23T06:25:03.663Z,40.48
2019-01-23T06:26:03.502Z,43.06
2019-01-23T06:27:03.228Z,43.06
2019-01-23T06:28:02.727Z,40.39
2019-01-23T06:29:03.201Z,39.19
2019-01-23T06:30:10.569Z,38.84
2019-01-23T06:31:03.217Z,39.97
2019-01-23T06:32:02.994Z,37.67
2019-01-23T06:33:01.822Z,40.77
2019-01-23T06:34:01.974Z,37.05
2019-01-23T06:35:02.116Z,40.9
2019-01-23T06:36:02.903Z,41.32
2019-01-23T06:37:03.382Z,37.58
2019-01-23T06:38:03.494Z,40.92
2019-01-23T06:39:02.862Z,40.92
2019-01-23T06:40:03.636Z,37.38
2019-01-23T06:41:02.921Z,40.78
2019-01-23T06:42:02.720Z,40.78
2019-01-23T06:43:03.369Z,38.38
2019-01-23T06:44:03.336Z,38.45
2019-01-23T06:45:03.770Z,41.02
2019-01-23T06:46:03.446Z,36.41
2019-01-23T06:47:03.628Z,37.82
2019-01-23T06:48:03.182Z,37.08
2019-01-23T06:49:02.405Z,37.1
2019-01-23T06:50:03.134Z,39.5
2019-01-23T06:51:03.414Z,36.55
2019-01-23T06:52:03.374Z,36.55
2019-01-23T06:53:03.025Z,38.23
2019-01-23T06:54:03.429Z,36.74
2019-01-23T06:55:03.541Z,39.29
2019-01-23T06:56:02.762Z,38.21
2019-01-23T06:57:03.011Z,38.56
2019-01-23T06:58:02.114Z,40.19
2019-01-23T06:59:02.732Z,38.57
2019-01-23T07:00:02.805Z,37.62
2019-01-23T07:01:03.091Z,37.27
2019-01-23T07:02:03.694Z,36.96
2019-01-23T07:03:03.550Z,41.24
2019-01-23T07:04:03.228Z,37.79
2019-01-23T07:05:03.695Z,36.2
2019-01-23T07:06:03.137Z,36.2
2019-01-23T07:07:02.942Z,35.82
2019-01-23T07:08:03.175Z,37.36
2019-01-23T07:09:03.063Z,36
2019-01-23T07:10:03.724Z,36
2019-01-23T07:11:02.948Z,38.99
2019-01-23T07:12:02.809Z,38.99
2019-01-23T07:13:03.607Z,38.99
2019-01-23T07:14:03.412Z,36.66
2019-01-23T07:15:03.446Z,35.03
2019-01-23T07:16:03.589Z,35.03
2019-01-23T07:17:03.342Z,39.33
2019-01-23T07:18:03.200Z,39.33
2019-01-23T07:19:03.365Z,36.26
2019-01-23T07:20:03.281Z,35.29
2019-01-23T07:21:03.555Z,35.5
2019-01-23T07:22:03.408Z,35.86
2019-01-23T07:23:03.097Z,35.7
2019-01-23T07:24:02.818Z,37.86
2019-01-23T07:25:03.150Z,37.25
2019-01-23T07:26:02.356Z,36.44
2019-01-23T07:27:03.152Z,34.88
2019-01-23T07:28:03.519Z,33.94
2019-01-23T07:29:02.600Z,40.43
2019-01-23T07:30:02.908Z,41.46
2019-01-23T07:31:03.722Z,39.02
2019-01-23T07:32:03.247Z,39.46
2019-01-23T07:33:02.795Z,39.09
2019-01-23T07:34:03.590Z,39.09
2019-01-23T07:35:03.029Z,41.02
2019-01-23T07:36:02.882Z,41.02
2019-01-23T07:37:03.556Z,39.79
2019-01-23T07:38:02.928Z,40.09
2019-01-23T07:39:03.515Z,40.1
2019-01-23T07:40:02.786Z,39.09
2019-01-23T07:41:03.423Z,39.09
2019-01-23T07:42:02.907Z,38.06
2019-01-23T07:43:03.021Z,39.05
2019-01-23T07:44:02.801Z,39.05
2019-01-23T07:45:03.070Z,38.14
2019-01-23T07:46:02.942Z,38.36
2019-01-23T07:47:03.130Z,38.36
2019-01-23T07:48:03.608Z,39.58
2019-01-23T07:49:03.052Z,39.58
2019-01-23T07:50:03.095Z,39.29
2019-01-23T07:51:03.529Z,38.08
2019-01-23T07:52:02.935Z,42.43
2019-01-23T07:53:02.864Z,41.12
2019-01-23T07:54:04.955Z,37.81
2019-01-23T07:55:03.346Z,37.81
2019-01-23T07:56:03.279Z,37.2
2019-01-23T07:57:03.219Z,39.16
2019-01-23T07:58:02.588Z,38.93
2019-01-23T07:59:03.837Z,40.87
2019-01-23T08:00:03.398Z,36.31
2019-01-23T08:01:02.898Z,36.31
2019-01-23T08:02:03.527Z,38.08
2019-01-23T08:03:03.601Z,38.08
2019-01-23T08:04:03.088Z,37.61
2019-01-23T08:05:03.400Z,37.71
2019-01-23T08:06:03.262Z,37.71
2019-01-23T08:07:03.568Z,37.04
2019-01-23T08:08:03.062Z,37.04
2019-01-23T08:09:03.483Z,36.52
2019-01-23T08:10:03.018Z,39.9
2019-01-23T08:11:03.450Z,40.17
2019-01-23T08:12:03.072Z,40.17
2019-01-23T08:13:03.641Z,38.44
2019-01-23T08:14:03.135Z,36.57
2019-01-23T08:15:02.663Z,40.11
2019-01-23T08:16:03.161Z,37.16
2019-01-23T08:17:02.673Z,39.76
2019-01-23T08:18:03.431Z,38.08
2019-01-23T08:19:03.071Z,39.52
2019-01-23T08:20:02.991Z,39.52
2019-01-23T08:21:02.950Z,39.96
2019-01-23T08:22:02.468Z,37.51
2019-01-23T08:23:02.819Z,38.57
2019-01-23T08:24:02.337Z,37.77
2019-01-23T08:25:03.693Z,38.47
2019-01-23T08:26:02.405Z,35.62
2019-01-23T08:27:07.257Z,37.2
2019-01-23T08:28:02.808Z,39.9
2019-01-23T08:29:02.958Z,37.88
2019-01-23T08:30:02.788Z,39.15
2019-01-23T08:31:02.668Z,36.68
2019-01-23T08:32:02.835Z,37.71
2019-01-23T08:33:03.734Z,36.8
2019-01-23T08:34:03.334Z,35.88
2019-01-23T08:35:02.831Z,36.28
2019-01-23T08:36:03.126Z,36.19
2019-01-23T08:37:03.616Z,39.27
2019-01-23T08:38:02.775Z,36.87
2019-01-23T08:39:03.742Z,36.87
2019-01-23T08:40:03.205Z,37.75
2019-01-23T08:41:02.905Z,37.72
2019-01-23T08:42:03.121Z,39.04
2019-01-23T08:43:03.662Z,39.04
2019-01-23T08:44:03.424Z,37.81
2019-01-23T08:45:03.701Z,37.78
2019-01-23T08:46:03.564Z,38.3
2019-01-23T08:47:03.173Z,40.22
2019-01-23T08:48:02.881Z,38.54
2019-01-23T08:49:02.964Z,38.54
2019-01-23T08:50:03.316Z,38.28
2019-01-23T08:51:02.858Z,38.28
2019-01-23T08:52:03.059Z,37.75
2019-01-23T08:53:02.756Z,37.75
2019-01-23T08:54:02.249Z,37.42
2019-01-23T08:55:01.846Z,37.66
2019-01-23T08:56:03.265Z,37.92
2019-01-23T08:57:03.161Z,35.35
2019-01-23T08:58:03.577Z,35.35
2019-01-23T08:59:02.927Z,35.51
2019-01-23T09:00:03.777Z,36.12
2019-01-23T09:01:03.568Z,34.43
2019-01-23T09:02:03.400Z,39.22
2019-01-23T09:03:02.934Z,36.98
2019-01-23T09:04:03.666Z,34.14
2019-01-23T09:05:03.216Z,36.28
2019-01-23T09:06:02.809Z,38.38
2019-01-23T09:07:03.528Z,38.38
2019-01-23T09:08:02.958Z,37.54
2019-01-23T09:09:03.571Z,39.6
2019-01-23T09:10:03.331Z,39.6
2019-01-23T09:11:02.822Z,38.28
2019-01-23T09:12:03.169Z,37.11
2019-01-23T09:13:02.599Z,37.11
2019-01-23T09:14:03.533Z,38.05
2019-01-23T09:15:03.053Z,39.09
2019-01-23T09:16:03.156Z,37.53
2019-01-23T09:17:02.861Z,36.11
2019-01-23T09:18:03.492Z,36.62
2019-01-23T09:19:02.411Z,39.09
2019-01-23T09:20:02.954Z,38.41
2019-01-23T09:21:02.673Z,39.38
2019-01-23T09:22:03.745Z,39.68
2019-01-23T09:23:03.273Z,37.81
2019-01-23T09:24:03.580Z,40.35
2019-01-23T09:25:02.973Z,41.45
2019-01-23T09:26:02.716Z,41.5
2019-01-23T09:27:03.775Z,39.81
2019-01-23T09:28:02.830Z,39.94
2019-01-23T09:29:03.009Z,38.37
2019-01-23T09:30:03.644Z,40.38
2019-01-23T09:31:03.244Z,40.38
2019-01-23T09:32:02.956Z,37.68
2019-01-23T09:33:03.672Z,37.68
2019-01-23T09:34:03.203Z,39.7
2019-01-23T09:35:03.649Z,39.7
2019-01-23T09:36:03.641Z,34.74
2019-01-23T09:37:03.617Z,34.74
2019-01-23T09:38:02.975Z,39.35
2019-01-23T09:39:02.862Z,38.14
2019-01-23T09:40:03.054Z,38.15
2019-01-23T09:41:02.429Z,38.75
2019-01-23T09:42:03.658Z,40.72
2019-01-23T09:43:01.938Z,40.72
2019-01-23T09:44:03.525Z,40.18
2019-01-23T09:45:02.844Z,40.18
2019-01-23T09:46:03.346Z,40.09
2019-01-23T09:47:02.786Z,39.11
2019-01-23T09:48:03.205Z,40.85
2019-01-23T09:49:02.895Z,42.18
2019-01-23T09:50:03.589Z,40.59
2019-01-23T09:51:03.715Z,42.41
2019-01-23T09:52:03.364Z,39.38
2019-01-23T09:53:02.872Z,39.38
2019-01-23T09:54:03.320Z,43.26
2019-01-23T09:55:02.817Z,43.26
2019-01-23T09:56:02.926Z,45
2019-01-23T09:57:03.245Z,45
2019-01-23T09:58:03.308Z,43.44
2019-01-23T09:59:03.191Z,43.29
2019-01-23T10:00:02.826Z,44.58
2019-01-23T10:01:06.850Z,44.58
2019-01-23T10:02:02.888Z,44.43
2019-01-23T10:03:02.795Z,43.58
2019-01-23T10:04:02.853Z,40.73
2019-01-23T10:05:02.701Z,42
2019-01-23T10:06:03.467Z,42
2019-01-23T10:07:03.463Z,45.79
2019-01-23T10:08:03.627Z,43.48
2019-01-23T10:09:02.806Z,43.48
2019-01-23T10:10:02.961Z,40.18
2019-01-23T10:11:03.548Z,42.4
2019-01-23T10:12:02.849Z,42.6
2019-01-23T10:13:03.361Z,42.86
2019-01-23T10:14:03.149Z,43.54
2019-01-23T10:15:03.498Z,42.74
2019-01-23T10:16:02.967Z,42.74
2019-01-23T10:17:03.210Z,43.97
2019-01-23T10:18:02.886Z,43.11
2019-01-23T10:19:02.887Z,42.85
2019-01-23T10:20:03.793Z,42.64
2019-01-23T10:21:02.766Z,41.65
2019-01-23T10:22:02.614Z,39.97
2019-01-23T10:23:02.865Z,39.64
2019-01-23T10:24:02.713Z,40.91
2019-01-23T10:25:03.065Z,40.36
2019-01-23T10:26:03.589Z,40.36
2019-01-23T10:27:03.109Z,39.12
2019-01-23T10:28:03.568Z,39.12
2019-01-23T10:29:03.286Z,36.99
2019-01-23T10:30:02.862Z,36.99
2019-01-23T10:31:07.050Z,40.06
2019-01-23T10:32:02.958Z,37.46
2019-01-23T10:33:03.715Z,39.05
2019-01-23T10:34:03.144Z,39.05
2019-01-23T10:35:03.517Z,38.71
2019-01-23T10:36:02.074Z,38.42
2019-01-23T10:37:03.600Z,35.74
2019-01-23T10:38:03.187Z,35.74
2019-01-23T10:39:03.210Z,36.56
2019-01-23T10:40:03.097Z,37.93
2019-01-23T10:41:03.502Z,37.48
2019-01-23T10:42:02.802Z,38.34
2019-01-23T10:43:02.771Z,38.35
2019-01-23T10:44:03.674Z,38.35
2019-01-23T10:45:03.340Z,41.4
2019-01-23T10:46:03.305Z,37.32
2019-01-23T10:47:03.565Z,38.86
2019-01-23T10:48:02.979Z,38.54
2019-01-23T10:49:03.424Z,37.29
2019-01-23T10:50:03.196Z,35.81
2019-01-23T10:51:03.228Z,37.22
2019-01-23T10:52:03.673Z,38.69
2019-01-23T10:53:02.898Z,34.78
2019-01-23T10:54:02.750Z,34.78
2019-01-23T10:55:03.441Z,37.32
2019-01-23T10:56:03.040Z,37.32
2019-01-23T10:57:03.708Z,37.6
2019-01-23T10:58:03.769Z,35.64
2019-01-23T10:59:02.362Z,36.88
2019-01-23T11:00:03.321Z,34.71
2019-01-23T11:01:03.422Z,36.51
2019-01-23T11:02:03.200Z,36.71
2019-01-23T11:03:10.234Z,36.81
2019-01-23T11:04:03.602Z,39.99
2019-01-23T11:05:02.913Z,38.15
2019-01-23T11:06:03.376Z,36.78
2019-01-23T11:07:03.277Z,37.68
2019-01-23T11:08:02.163Z,37.79
2019-01-23T11:09:03.205Z,37.1
2019-01-23T11:10:03.191Z,37.1
2019-01-23T11:11:02.817Z,37.02
2019-01-23T11:12:01.768Z,38.44
2019-01-23T11:13:03.297Z,36.89
2019-01-23T11:14:02.877Z,38.66
2019-01-23T11:15:01.779Z,35.82
2019-01-23T11:16:03.722Z,35.24
2019-01-23T11:17:03.062Z,35.24
2019-01-23T11:18:03.695Z,35.24
2019-01-23T11:19:03.471Z,36.68
2019-01-23T11:20:03.456Z,36.68
2019-01-23T11:21:03.014Z,36.68
2019-01-23T11:22:02.827Z,37.1
2019-01-23T11:23:03.230Z,38.39
2019-01-23T11:24:03.202Z,36.77
2019-01-23T11:25:02.912Z,37.16
2019-01-23T11:26:02.880Z,36.4
2019-01-23T11:27:02.695Z,35.51
2019-01-23T11:28:03.073Z,35.46
2019-01-23T11:29:02.482Z,33.54
2019-01-23T11:30:03.471Z,33.54
2019-01-23T11:31:03.338Z,33.74
2019-01-23T11:32:02.748Z,34.77
2019-01-23T11:33:03.497Z,33.55
2019-01-23T11:34:03.487Z,33.55
2019-01-23T11:35:03.306Z,36.35
2019-01-23T11:36:02.911Z,36.35
2019-01-23T11:37:02.963Z,36.01
2019-01-23T11:38:03.403Z,37
2019-01-23T11:39:02.577Z,36.91
2019-01-23T11:40:02.209Z,36.22
2019-01-23T11:41:03.757Z,35.51
2019-01-23T11:42:02.219Z,34.45
2019-01-23T11:43:03.248Z,36.89
2019-01-23T11:44:03.268Z,35.52
2019-01-23T11:45:03.240Z,35.52
2019-01-23T11:46:03.694Z,34.09
2019-01-23T11:47:02.802Z,33.29
2019-01-23T11:48:03.105Z,35.01
2019-01-23T11:49:02.632Z,34.42
2019-01-23T11:50:03.095Z,33.53
2019-01-23T11:51:03.539Z,35.69
2019-01-23T11:52:03.588Z,36.55
2019-01-23T11:53:02.884Z,34.81
2019-01-23T11:54:03.338Z,33.86
2019-01-23T11:55:03.671Z,35.69
2019-01-23T11:56:03.019Z,37.13
2019-01-23T11:57:03.354Z,37.59
2019-01-23T11:58:02.970Z,35.26
2019-01-23T11:59:03.204Z,32.99
2019-01-23T12:00:03.197Z,34.28
2019-01-23T12:01:03.415Z,35.38
2019-01-23T12:02:03.391Z,33.44
2019-01-23T12:03:03.157Z,33.44
2019-01-23T12:04:03.328Z,35.83
2019-01-23T12:05:03.047Z,35.83
2019-01-23T12:06:02.733Z,36.15
2019-01-23T12:07:02.818Z,34.36
2019-01-23T12:08:03.701Z,34.96
2019-01-23T12:09:03.281Z,34.96
2019-01-23T12:10:02.925Z,36.22
2019-01-23T12:11:03.657Z,32.37
2019-01-23T12:12:03.516Z,33.25
2019-01-23T12:13:03.148Z,33.32
2019-01-23T12:14:03.059Z,31.53
2019-01-23T12:15:03.767Z,32.87
2019-01-23T12:16:03.295Z,34.25
2019-01-23T12:17:03.103Z,32.94
2019-01-23T12:18:02.468Z,32.09
2019-01-23T12:19:03.047Z,34.41
2019-01-23T12:20:02.564Z,35.23
2019-01-23T12:21:03.775Z,34.68
2019-01-23T12:22:03.357Z,35.44
2019-01-23T12:23:03.264Z,35.44
2019-01-23T12:24:03.308Z,35.53
2019-01-23T12:25:03.333Z,33.42
2019-01-23T12:26:03.633Z,32.76
2019-01-23T12:27:03.461Z,32.76
2019-01-23T12:28:02.779Z,35.12
2019-01-23T12:29:03.075Z,35.69
2019-01-23T12:30:03.217Z,33.55
2019-01-23T12:31:02.717Z,33.55
2019-01-23T12:32:02.664Z,32.25
2019-01-23T12:33:03.599Z,32.25
2019-01-23T12:34:02.853Z,34.41
2019-01-23T12:35:02.781Z,31.82
2019-01-23T12:36:02.969Z,31.85
2019-01-23T12:37:03.388Z,31.05
2019-01-23T12:38:03.070Z,31.05
2019-01-23T12:39:03.198Z,31.08
2019-01-23T12:40:03.442Z,32.81
2019-01-23T12:41:03.232Z,32.81
2019-01-23T12:42:02.737Z,31.52
2019-01-23T12:43:03.367Z,34.55
2019-01-23T12:44:02.371Z,35.41
2019-01-23T12:45:02.770Z,33.73
2019-01-23T12:46:01.565Z,33.89
2019-01-23T12:47:01.972Z,33.01
2019-01-23T12:48:03.512Z,30.85
2019-01-23T12:49:03.642Z,34.24
2019-01-23T12:50:03.150Z,34.27
2019-01-23T12:51:02.877Z,33.41
2019-01-23T12:52:03.543Z,35.01
2019-01-23T12:53:03.412Z,32.22
2019-01-23T12:54:02.918Z,32.92
2019-01-23T12:55:03.450Z,32.92